createdAt,value
2019-01-19T00:02:02.288Z,99104.32
2019-01-19T00:05:24.456Z,99116.61
2019-01-19T00:08:16.779Z,99111.84
2019-01-19T00:11:21.568Z,99109.70
2019-01-19T00:14:28.386Z,99106.16
2019-01-19T00:17:40.648Z,99104.13
2019-01-19T00:20:51.066Z,99106.58
2019-01-19T00:23:57.096Z,99111.70
2019-01-19T00:27:12.099Z,99112.64
2019-01-19T00:30:07.608Z,99116.80
2019-01-19T00:33:01.196Z,99125.40
2019-01-19T00:35:56.033Z,99126.83
2019-01-19T00:38:59.672Z,99126.89
2019-01-19T00:42:03.391Z,99133.75
2019-01-19T00:44:44.696Z,99133.09
2019-01-19T00:48:01.340Z,99139.15
2019-01-19T00:51:13.143Z,99127.16
2019-01-19T00:54:14.694Z,99125.96
2019-01-19T00:57:10.254Z,99128.14
2019-01-19T00:59:44.196Z,99129.31
2019-01-19T01:02:38.352Z,99128.34
2019-01-19T01:05:38.368Z,99129.91
2019-01-19T01:08:57.975Z,99122.83
2019-01-19T01:11:57.092Z,99122.31
2019-01-19T01:15:06.441Z,99123.90
2019-01-19T01:17:53.792Z,99123.53
2019-01-19T01:21:28.135Z,99125.37
2019-01-19T01:24:39.820Z,99121.98
2019-01-19T01:27:38.701Z,99111.66
2019-01-19T01:30:33.426Z,99115.20
2019-01-19T01:33:42.848Z,99114.47
2019-01-19T01:36:56.143Z,99114.22
2019-01-19T01:40:15.716Z,99112.50
2019-01-19T01:43:11.678Z,99113.97
2019-01-19T01:46:30.767Z,99108.13
2019-01-19T01:49:28.393Z,99114.22
2019-01-19T01:52:46.168Z,99113.28
2019-01-19T01:55:36.534Z,99112.56
2019-01-19T01:58:42.832Z,99119.03
2019-01-19T02:01:37.228Z,99111.05
2019-01-19T02:04:53.823Z,99103.01
2019-01-19T02:08:00.830Z,99099.01
2019-01-19T02:10:37.479Z,99101.02
2019-01-19T02:13:32.922Z,99105.31
2019-01-19T02:16:52.183Z,99102.23
2019-01-19T02:19:55.825Z,99101.99
2019-01-19T02:23:09.329Z,99102.63
2019-01-19T02:26:37.877Z,99096.56
2019-01-19T02:30:00.215Z,99098.72
2019-01-19T02:33:19.196Z,99106.71
2019-01-19T02:36:30.912Z,99094.92
2019-01-19T02:39:48.207Z,99090.58
2019-01-19T02:43:06.751Z,99092.22
2019-01-19T02:46:10.089Z,99085.52
2019-01-19T02:49:20.370Z,99084.63
2019-01-19T02:52:10.339Z,99083.87
2019-01-19T02:55:29.520Z,99086.84
2019-01-19T02:58:30.343Z,99083.66
2019-01-19T03:01:40.774Z,99092.86
2019-01-19T03:04:43.417Z,99094.75
2019-01-19T03:08:14.878Z,99091.54
2019-01-19T03:11:20.552Z,99092.89
2019-01-19T03:14:29.639Z,99094.43
2019-01-19T03:17:52.212Z,99090.47
2019-01-19T03:20:45.925Z,99089.48
2019-01-19T03:23:47.194Z,99086.82
2019-01-19T03:26:41.571Z,99095.16
2019-01-19T03:29:28.620Z,99097.40
2019-01-19T03:32:21.880Z,99094.38
2019-01-19T03:35:12.102Z,99096.63
2019-01-19T03:38:03.691Z,99096.70
2019-01-19T03:41:20.194Z,99099.67
2019-01-19T03:44:36.762Z,99101.30
2019-01-19T03:47:47.326Z,99109.61
2019-01-19T03:50:55.973Z,99109.57
2019-01-19T03:53:57.884Z,99106.98
2019-01-19T03:57:20.316Z,99104.20
2019-01-19T04:00:07.361Z,99102.27
2019-01-19T04:03:22.710Z,99106.24
2019-01-19T04:06:42.048Z,99105.52
2019-01-19T04:09:40.342Z,99107.47
2019-01-19T04:13:08.841Z,99105.56
2019-01-19T04:16:17.692Z,99104.25
2019-01-19T04:19:34.024Z,99113.80
2019-01-19T04:22:27.342Z,99109.44
2019-01-19T04:25:45.147Z,99106.36
2019-01-19T04:28:16.944Z,99109.64
2019-01-19T04:30:46.571Z,99106.23
2019-01-19T04:33:16.198Z,99117.58
2019-01-19T04:35:45.863Z,99117.20
2019-01-19T04:38:15.488Z,99115.75
2019-01-19T04:40:45.096Z,99107.34
2019-01-19T04:43:14.896Z,99113.80
2019-01-19T04:45:44.526Z,99112.88
2019-01-19T04:48:14.713Z,99118.06
2019-01-19T04:50:44.389Z,99119.38
2019-01-19T04:53:14.011Z,99122.09
2019-01-19T04:55:43.656Z,99115.94
2019-01-19T04:58:13.334Z,99120.12
2019-01-19T05:00:42.973Z,99125.88
2019-01-19T05:03:12.593Z,99129.56
2019-01-19T05:05:42.333Z,99134.05
2019-01-19T05:08:11.988Z,99135.20
2019-01-19T05:10:41.656Z,99135.36
2019-01-19T05:13:11.336Z,99148.09
2019-01-19T05:15:40.970Z,99155.04
2019-01-19T05:18:10.853Z,99163.78
2019-01-19T05:20:40.596Z,99166.44
2019-01-19T05:23:10.828Z,99170.80
2019-01-19T05:25:40.489Z,99168.84
2019-01-19T05:28:10.145Z,99172.34
2019-01-19T05:30:39.790Z,99166.94
2019-01-19T05:33:09.410Z,99172.13
2019-01-19T05:35:39.122Z,99180.44
2019-01-19T05:38:08.797Z,99181.87
2019-01-19T05:40:38.428Z,99181.65
2019-01-19T05:43:08.203Z,99187.39
2019-01-19T05:45:37.867Z,99186.61
2019-01-19T05:48:07.494Z,99187.11
2019-01-19T05:50:37.183Z,99187.02
2019-01-19T05:53:06.816Z,99181.08
2019-01-19T05:55:36.587Z,99186.77
2019-01-19T05:58:06.267Z,99190.75
2019-01-19T06:00:36.868Z,99192.17
2019-01-19T06:03:07.034Z,99198.75
2019-01-19T06:05:38.488Z,99204.22
2019-01-19T06:08:08.181Z,99204.53
2019-01-19T06:10:37.798Z,99200.26
2019-01-19T06:13:07.489Z,99196.91
2019-01-19T06:15:37.160Z,99195.27
2019-01-19T06:18:07.044Z,99193.67
2019-01-19T06:20:36.750Z,99196.72
2019-01-19T06:23:06.506Z,99195.05
2019-01-19T06:25:36.127Z,99196.58
2019-01-19T06:28:06.016Z,99202.56
2019-01-19T06:30:35.677Z,99206.27
2019-01-19T06:33:05.547Z,99212.42
2019-01-19T06:35:35.265Z,99217.58
2019-01-19T06:38:04.923Z,99226.20
2019-01-19T06:40:34.834Z,99227.86
2019-01-19T06:43:04.757Z,99230.94
2019-01-19T06:45:34.371Z,99229.31
2019-01-19T06:48:04.124Z,99226.64
2019-01-19T06:50:33.817Z,99231.63
2019-01-19T06:53:03.453Z,99229.98
2019-01-19T06:55:35.338Z,99229.19
2019-01-19T06:58:05.179Z,99231.63
2019-01-19T07:00:34.828Z,99234.27
2019-01-19T07:03:04.605Z,99231.61
2019-01-19T07:05:34.346Z,99231.90
2019-01-19T07:08:03.985Z,99231.56
2019-01-19T07:10:33.657Z,99231.50
2019-01-19T07:13:03.486Z,99232.99
2019-01-19T07:15:33.582Z,99224.81
2019-01-19T07:18:03.303Z,99230.03
2019-01-19T07:20:33.044Z,99229.67
2019-01-19T07:23:02.720Z,99234.69
2019-01-19T07:25:32.360Z,99229.13
2019-01-19T07:28:02.120Z,99236.27
2019-01-19T07:30:31.722Z,99244.83
2019-01-19T07:33:01.354Z,99249.53
2019-01-19T07:35:31.043Z,99246.64
2019-01-19T07:38:00.690Z,99252.67
2019-01-19T07:40:30.360Z,99257.13
2019-01-19T07:43:03.770Z,99260.47
2019-01-19T07:45:33.411Z,99259.73
2019-01-19T07:48:03.401Z,99267.75
2019-01-19T07:50:33.238Z,99270.32
2019-01-19T07:53:02.919Z,99270.16
2019-01-19T07:55:32.561Z,99283.75
2019-01-19T07:58:02.281Z,99289.03
2019-01-19T08:00:32.850Z,99290.21
2019-01-19T08:03:02.700Z,99300.09
2019-01-19T08:05:32.435Z,99305.98
2019-01-19T08:08:02.047Z,99303.89
2019-01-19T08:10:31.675Z,99300.70
2019-01-19T08:13:01.407Z,99303.78
2019-01-19T08:15:31.248Z,99304.41
2019-01-19T08:18:00.929Z,99307.84
2019-01-19T08:20:30.746Z,99314.41
2019-01-19T08:23:00.382Z,99314.34
2019-01-19T08:25:30.031Z,99321.31
2019-01-19T08:28:01.314Z,99323.11
2019-01-19T08:30:31.647Z,99328.16
2019-01-19T08:33:01.243Z,99338.06
2019-01-19T08:35:31.460Z,99334.12
2019-01-19T08:38:01.056Z,99337.90
2019-01-19T08:40:33.106Z,99341.34
2019-01-19T08:43:24.684Z,99343.86
2019-01-19T08:45:54.344Z,99347.34
2019-01-19T08:48:24.158Z,99348.83
2019-01-19T08:50:53.912Z,99356.44
2019-01-19T08:53:23.541Z,99362.23
2019-01-19T08:55:53.310Z,99371.01
2019-01-19T08:58:23.097Z,99371.92
2019-01-19T09:00:52.751Z,99382.19
2019-01-19T09:03:22.370Z,99379.34
2019-01-19T09:05:52.172Z,99378.55
2019-01-19T09:08:21.834Z,99379.12
2019-01-19T09:10:51.477Z,99383.45
2019-01-19T09:13:21.268Z,99372.52
2019-01-19T09:15:52.005Z,99375.77
2019-01-19T09:18:21.639Z,99369.66
2019-01-19T09:20:51.388Z,99372.14
2019-01-19T09:23:25.107Z,99376.90
2019-01-19T09:25:54.820Z,99372.81
2019-01-19T09:28:24.435Z,99367.11
2019-01-19T09:30:54.143Z,99369.66
2019-01-19T09:33:23.956Z,99368.13
2019-01-19T09:35:53.574Z,99361.71
2019-01-19T09:38:23.213Z,99354.92
2019-01-19T09:40:53.155Z,99349.02
2019-01-19T09:43:22.790Z,99338.48
2019-01-19T09:45:52.419Z,99339.95
2019-01-19T09:48:22.184Z,99339.00
2019-01-19T09:50:51.790Z,99334.70
2019-01-19T09:53:21.424Z,99335.98
2019-01-19T09:55:51.087Z,99331.89
2019-01-19T09:58:20.731Z,99329.27
2019-01-19T10:00:50.387Z,99322.81
2019-01-19T10:03:20.043Z,99321.46
2019-01-19T10:05:49.654Z,99307.91
2019-01-19T10:08:19.254Z,99309.86
2019-01-19T10:10:49.077Z,99313.16
2019-01-19T10:13:18.676Z,99316.36
2019-01-19T10:15:48.300Z,99320.32
2019-01-19T10:18:18.633Z,99315.13
2019-01-19T10:20:48.432Z,99316.03
2019-01-19T10:23:18.161Z,99310.13
2019-01-19T10:25:47.839Z,99301.93
2019-01-19T10:28:17.513Z,99300.08
2019-01-19T10:30:47.162Z,99299.89
2019-01-19T10:33:16.837Z,99301.05
2019-01-19T10:35:46.433Z,99300.89
2019-01-19T10:38:16.048Z,99302.42
2019-01-19T10:40:45.748Z,99296.72
2019-01-19T10:43:15.383Z,99298.63
2019-01-19T10:45:45.027Z,99296.34
2019-01-19T10:48:14.940Z,99304.43
2019-01-19T10:50:44.550Z,99294.45
2019-01-19T10:53:14.232Z,99293.12
2019-01-19T10:55:44.005Z,99289.09
2019-01-19T10:58:13.671Z,99289.79
2019-01-19T11:00:43.309Z,99295.48
2019-01-19T11:03:13.069Z,99298.36
2019-01-19T11:05:42.696Z,99289.32
2019-01-19T11:08:13.631Z,99294.78
2019-01-19T11:10:43.343Z,99282.82
2019-01-19T11:13:13.089Z,99281.11
2019-01-19T11:15:42.705Z,99281.33
2019-01-19T11:18:12.410Z,99273.16
2019-01-19T11:20:42.032Z,99273.77
2019-01-19T11:23:11.656Z,99267.59
2019-01-19T11:25:41.414Z,99280.35
2019-01-19T11:28:11.059Z,99267.32
2019-01-19T11:30:40.688Z,99257.69
2019-01-19T11:33:10.372Z,99259.41
2019-01-19T11:35:40.043Z,99253.84
2019-01-19T11:38:12.104Z,99250.75
2019-01-19T11:40:41.111Z,99247.03
2019-01-19T11:43:11.630Z,99250.13
2019-01-19T11:45:41.233Z,99251.05
2019-01-19T11:48:10.866Z,99247.18
2019-01-19T11:50:40.588Z,99240.48
2019-01-19T11:53:10.206Z,99236.90
2019-01-19T11:55:39.919Z,99235.84
2019-01-19T11:58:09.520Z,99232.73
2019-01-19T12:00:40.458Z,99231.55
2019-01-19T12:03:10.270Z,99231.73
2019-01-19T12:05:40.564Z,99226.16
2019-01-19T12:08:19.211Z,99230.99
2019-01-19T12:10:43.222Z,99238.11
2019-01-19T12:13:12.979Z,99234.59
2019-01-19T12:15:42.614Z,99237.34
2019-01-19T12:18:12.357Z,99238.02
2019-01-19T12:20:44.473Z,99232.72
2019-01-19T12:23:14.124Z,99230.27
2019-01-19T12:25:44.038Z,99240.35
2019-01-19T12:28:13.758Z,99234.38
2019-01-19T12:30:43.379Z,99237.31
2019-01-19T12:33:13.273Z,99234.16
2019-01-19T12:35:42.913Z,99232.36
2019-01-19T12:38:12.585Z,99238.55
2019-01-19T12:40:42.277Z,99243.39
2019-01-19T12:43:17.532Z,99243.20
2019-01-19T12:45:58.055Z,99249.73
2019-01-19T12:48:27.703Z,99242.51
2019-01-19T12:50:57.476Z,99239.98
2019-01-19T12:53:27.611Z,99242.21
2019-01-19T12:55:57.252Z,99241.53
2019-01-19T12:58:26.870Z,99247.37
2019-01-19T13:00:56.608Z,99247.91
2019-01-19T13:03:26.531Z,99258.47
2019-01-19T13:06:27.240Z,99255.44
2019-01-19T13:08:57.092Z,99258.14
2019-01-19T13:11:53.785Z,99250.91
2019-01-19T13:14:23.579Z,99258.24
2019-01-19T13:17:32.639Z,99255.91
2019-01-19T13:20:23.493Z,99258.61
2019-01-19T13:23:14.671Z,99260.30
2019-01-19T13:26:30.666Z,99263.95
2019-01-19T13:29:25.715Z,99261.98
2019-01-19T13:32:45.230Z,99266.22
2019-01-19T13:35:51.486Z,99268.39
2019-01-19T13:39:06.970Z,99273.08
2019-01-19T13:42:29.672Z,99265.87
2019-01-19T13:45:53.753Z,99264.52
2019-01-19T13:48:48.037Z,99263.53
2019-01-19T13:51:54.634Z,99266.09
2019-01-19T13:55:03.431Z,99265.52
2019-01-19T13:58:31.945Z,99273.41
2019-01-19T14:01:49.765Z,99277.07
2019-01-19T14:04:30.167Z,99273.22
2019-01-19T14:07:55.762Z,99272.47
2019-01-19T14:10:50.594Z,99279.16
2019-01-19T14:13:34.269Z,99278.87
2019-01-19T14:16:29.374Z,99277.92
2019-01-19T14:19:39.776Z,99276.77
2019-01-19T14:22:43.868Z,99277.30
2019-01-19T14:25:35.700Z,99275.82
2019-01-19T14:28:43.578Z,99283.94
2019-01-19T14:31:43.573Z,99284.12
2019-01-19T14:34:22.219Z,99278.59
2019-01-19T14:37:38.547Z,99276.87
2019-01-19T14:40:39.058Z,99278.94
2019-01-19T14:43:42.161Z,99282.80
2019-01-19T14:46:51.085Z,99279.20
2019-01-19T14:49:49.439Z,99285.37
2019-01-19T14:52:59.645Z,99280.34
2019-01-19T14:55:53.444Z,99279.16
2019-01-19T14:58:49.709Z,99277.70
2019-01-19T15:01:58.543Z,99285.97
2019-01-19T15:05:03.655Z,99281.12
2019-01-19T15:08:07.191Z,99279.30
2019-01-19T15:10:54.128Z,99275.38
2019-01-19T15:14:01.784Z,99276.03
2019-01-19T15:17:14.478Z,99280.41
2019-01-19T15:20:15.664Z,99282.53
2019-01-19T15:23:22.127Z,99283.77
2019-01-19T15:26:38.190Z,99286.31
2019-01-19T15:29:48.808Z,99291.38
2019-01-19T15:32:57.847Z,99297.18
2019-01-19T15:35:57.001Z,99296.72
2019-01-19T15:38:39.397Z,99297.08
2019-01-19T15:41:47.167Z,99293.03
2019-01-19T15:44:47.680Z,99299.26
2019-01-19T15:47:39.624Z,99299.67
2019-01-19T15:50:31.183Z,99301.61
2019-01-19T15:53:36.376Z,99308.95
2019-01-19T15:56:39.436Z,99301.38
2019-01-19T16:00:13.731Z,99303.84
2019-01-19T16:03:11.663Z,99299.09
2019-01-19T16:06:23.739Z,99305.83
2019-01-19T16:09:39.080Z,99299.83
2019-01-19T16:12:38.232Z,99303.32
2019-01-19T16:15:44.513Z,99303.49
2019-01-19T16:18:53.642Z,99305.28
2019-01-19T16:21:54.171Z,99308.59
2019-01-19T16:24:39.539Z,99315.81
2019-01-19T16:27:20.700Z,99313.38
2019-01-19T16:30:03.527Z,99317.09
2019-01-19T16:33:20.019Z,99325.91
2019-01-19T16:36:18.291Z,99325.33
2019-01-19T16:39:36.460Z,99331.45
2019-01-19T16:42:41.113Z,99328.44
2019-01-19T16:45:39.456Z,99336.52
2019-01-19T16:48:45.149Z,99340.45
2019-01-19T16:51:58.565Z,99340.84
2019-01-19T16:55:02.302Z,99351.83
2019-01-19T16:58:33.657Z,99351.16
2019-01-19T17:01:27.463Z,99356.00
2019-01-19T17:04:41.489Z,99356.13
2019-01-19T17:07:54.511Z,99352.52
2019-01-19T17:11:00.783Z,99354.83
2019-01-19T17:14:13.494Z,99362.89
2019-01-19T17:17:14.503Z,99362.80
2019-01-19T17:20:25.277Z,99364.28
2019-01-19T17:23:11.601Z,99371.41
2019-01-19T17:26:14.974Z,99366.88
2019-01-19T17:29:12.035Z,99374.50
2019-01-19T17:31:51.009Z,99372.83
2019-01-19T17:35:01.512Z,99372.27
2019-01-19T17:38:13.651Z,99377.66
2019-01-19T17:41:14.084Z,99386.70
2019-01-19T17:44:17.534Z,99390.95
2019-01-19T17:47:15.051Z,99394.00
2019-01-19T17:50:29.083Z,99392.66
2019-01-19T17:53:36.906Z,99393.98
2019-01-19T17:56:56.675Z,99393.16
2019-01-19T17:59:42.315Z,99389.52
2019-01-19T18:02:48.604Z,99389.63
2019-01-19T18:05:49.753Z,99385.95
2019-01-19T18:08:59.888Z,99388.48
2019-01-19T18:12:04.991Z,99375.41
2019-01-19T18:15:13.501Z,99383.34
2019-01-19T18:18:07.780Z,99383.91
2019-01-19T18:21:19.760Z,99382.30
2019-01-19T18:24:33.065Z,99384.47
2019-01-19T18:27:48.883Z,99387.55
2019-01-19T18:30:43.619Z,99390.55
2019-01-19T18:33:38.412Z,99403.16
2019-01-19T18:36:42.669Z,99403.05
2019-01-19T18:39:43.841Z,99395.89
2019-01-19T18:42:51.777Z,99407.05
2019-01-19T18:45:58.636Z,99406.02
2019-01-19T18:49:17.821Z,99409.42
2019-01-19T18:52:28.532Z,99403.41
2019-01-19T18:55:24.631Z,99407.61
2019-01-19T18:58:34.831Z,99408.23
2019-01-19T19:01:55.583Z,99408.05
2019-01-19T19:05:17.623Z,99410.55
2019-01-19T19:08:38.560Z,99413.95
2019-01-19T19:11:35.723Z,99424.30
2019-01-19T19:14:26.612Z,99430.52
2019-01-19T19:17:31.560Z,99426.86
2019-01-19T19:20:44.585Z,99425.70
2019-01-19T19:23:44.145Z,99431.23
2019-01-19T19:26:53.414Z,99425.59
2019-01-19T19:30:00.223Z,99427.19
2019-01-19T19:33:08.493Z,99422.83
2019-01-19T19:36:17.447Z,99423.67
2019-01-19T19:39:17.562Z,99429.45
2019-01-19T19:42:10.686Z,99415.60
2019-01-19T19:45:36.063Z,99427.84
2019-01-19T19:48:30.363Z,99428.68
2019-01-19T19:51:46.677Z,99430.95
2019-01-19T19:54:16.463Z,99429.94
2019-01-19T19:56:44.244Z,99436.98
2019-01-19T19:59:14.001Z,99442.20
2019-01-19T20:01:43.677Z,99442.64
2019-01-19T20:04:13.388Z,99450.51
2019-01-19T20:06:43.056Z,99451.77
2019-01-19T20:09:13.051Z,99445.13
2019-01-19T20:11:42.749Z,99439.75
2019-01-19T20:14:12.709Z,99448.12
2019-01-19T20:16:42.557Z,99452.27
2019-01-19T20:19:12.232Z,99449.05
2019-01-19T20:21:41.908Z,99446.00
2019-01-19T20:24:11.681Z,99439.20
2019-01-19T20:26:41.390Z,99436.66
2019-01-19T20:29:11.087Z,99442.07
2019-01-19T20:31:40.753Z,99447.89
2019-01-19T20:34:10.410Z,99449.16
2019-01-19T20:36:40.207Z,99449.05
2019-01-19T20:39:10.864Z,99444.63
2019-01-19T20:41:40.570Z,99444.07
2019-01-19T20:44:10.293Z,99444.72
2019-01-19T20:46:39.964Z,99440.73
2019-01-19T20:49:09.635Z,99449.20
2019-01-19T20:51:39.345Z,99447.72
2019-01-19T20:54:09.052Z,99449.31
2019-01-19T20:56:38.708Z,99452.42
2019-01-19T20:59:08.460Z,99447.94
2019-01-19T21:01:38.146Z,99448.66
2019-01-19T21:04:07.855Z,99445.44
2019-01-19T21:06:37.591Z,99441.56
2019-01-19T21:09:11.726Z,99438.52
2019-01-19T21:11:41.421Z,99442.63
2019-01-19T21:14:11.154Z,99444.94
2019-01-19T21:16:41.006Z,99442.95
2019-01-19T21:19:10.838Z,99436.48
2019-01-19T21:21:40.488Z,99437.35
2019-01-19T21:24:10.165Z,99435.45
2019-01-19T21:26:39.822Z,99435.83
2019-01-19T21:29:09.477Z,99441.34
2019-01-19T21:31:39.224Z,99436.78
2019-01-19T21:34:08.835Z,99443.39
2019-01-19T21:36:38.531Z,99437.77
2019-01-19T21:39:09.407Z,99441.98
2019-01-19T21:41:39.088Z,99444.19
2019-01-19T21:44:08.767Z,99448.25
2019-01-19T21:46:38.390Z,99447.19
2019-01-19T21:49:08.075Z,99447.80
2019-01-19T21:51:37.742Z,99447.19
2019-01-19T21:54:07.421Z,99450.56
2019-01-19T21:56:37.106Z,99448.36
2019-01-19T21:59:06.779Z,99446.70
2019-01-19T22:01:36.417Z,99445.74
2019-01-19T22:04:06.138Z,99442.33
2019-01-19T22:06:35.777Z,99443.39
2019-01-19T22:09:07.667Z,99441.27
2019-01-19T22:11:37.385Z,99437.63
2019-01-19T22:14:07.089Z,99430.06
2019-01-19T22:16:36.762Z,99438.64
2019-01-19T22:19:06.743Z,99436.59
2019-01-19T22:21:36.361Z,99437.31
2019-01-19T22:24:06.047Z,99427.29
2019-01-19T22:26:36.154Z,99428.99
2019-01-19T22:29:08.670Z,99432.08
2019-01-19T22:31:38.466Z,99435.23
2019-01-19T22:34:08.116Z,99431.13
2019-01-19T22:36:37.817Z,99427.48
2019-01-19T22:39:08.850Z,99423.23
2019-01-19T22:41:38.548Z,99426.61
2019-01-19T22:44:08.213Z,99426.33
2019-01-19T22:46:37.854Z,99424.91
2019-01-19T22:49:07.545Z,99426.02
2019-01-19T22:51:38.208Z,99420.58
2019-01-19T22:54:07.961Z,99420.69
2019-01-19T22:56:37.643Z,99409.34
2019-01-19T22:59:07.362Z,99405.50
2019-01-19T23:01:41.007Z,99403.29
2019-01-19T23:04:10.708Z,99394.54
2019-01-19T23:06:40.350Z,99398.19
2019-01-19T23:09:11.982Z,99398.20
2019-01-19T23:11:41.875Z,99394.88
2019-01-19T23:14:12.546Z,99392.30
2019-01-19T23:16:42.417Z,99393.19
2019-01-19T23:19:12.166Z,99395.80
2019-01-19T23:21:41.839Z,99396.53
2019-01-19T23:24:11.507Z,99390.38
2019-01-19T23:26:41.427Z,99388.95
2019-01-19T23:29:11.111Z,99383.78
2019-01-19T23:31:40.743Z,99383.83
2019-01-19T23:34:10.468Z,99377.77
2019-01-19T23:36:40.193Z,99380.03
2019-01-19T23:39:11.220Z,99373.88
2019-01-19T23:41:40.863Z,99371.37
2019-01-19T23:44:10.558Z,99369.16
2019-01-19T23:46:40.197Z,99375.50
2019-01-19T23:49:09.918Z,99374.21
2019-01-19T23:51:39.536Z,99377.64
2019-01-19T23:54:09.313Z,99376.61
2019-01-19T23:56:38.974Z,99370.18
2019-01-19T23:59:08.616Z,99373.11
